Time;durP1;ratioP1;P1;durP2;ratioP2;P2;SDS_P1;SDS_P2;PMS_P1;PMS_P2;Temp;Humidity;BMP_temperature;BMP_pressure;BME280_temperature;BME280_humidity;BME280_pressure;Samples;Min_cycle;Max_cycle;Signal;HPM_P1;HPM_P2
2023/01/26 00:00:49;;;;;;;38.60;18.42;;;;;;;;;;5091933;28;20024;-72
2023/01/26 00:03:16;;;;;;;38.00;18.45;;;;;;;;;;5092346;28;20020;-71
2023/01/26 00:05:42;;;;;;;33.53;16.75;;;;;;;;;;5092251;28;20031;-71
2023/01/26 00:08:09;;;;;;;32.90;17.27;;;;;;;;;;5091981;28;20110;-71
2023/01/26 00:10:36;;;;;;;34.75;16.73;;;;;;;;;;5092253;28;20028;-71
2023/01/26 00:13:03;;;;;;;33.67;18.05;;;;;;;;;;5092013;28;20024;-71
2023/01/26 00:15:32;;;;;;;31.33;16.80;;;;;;;;;;5092673;28;20039;-72
2023/01/26 00:17:58;;;;;;;35.70;17.05;;;;;;;;;;5092092;28;20484;-71
2023/01/26 00:20:25;;;;;;;35.00;17.77;;;;;;;;;;5092244;28;20038;-72
2023/01/26 00:22:51;;;;;;;32.85;16.10;;;;;;;;;;5091979;28;20028;-72
2023/01/26 00:25:17;;;;;;;40.35;19.15;;;;;;;;;;5092172;28;20396;-71
2023/01/26 00:27:44;;;;;;;42.13;19.20;;;;;;;;;;5092510;28;20026;-71
2023/01/26 00:30:10;;;;;;;38.95;19.27;;;;;;;;;;5091942;28;20044;-72
2023/01/26 00:32:37;;;;;;;53.33;24.77;;;;;;;;;;5090843;28;20029;-71
2023/01/26 00:35:04;;;;;;;38.53;19.20;;;;;;;;;;5091962;28;20030;-71
2023/01/26 00:37:30;;;;;;;41.88;19.10;;;;;;;;;;5091997;28;20016;-71
2023/01/26 00:39:56;;;;;;;38.88;18.30;;;;;;;;;;5092270;28;20036;-71
2023/01/26 00:42:23;;;;;;;37.60;19.08;;;;;;;;;;5091797;28;20016;-71
2023/01/26 00:44:50;;;;;;;34.55;17.17;;;;;;;;;;5091901;28;20027;-71
2023/01/26 00:47:17;;;;;;;40.88;19.52;;;;;;;;;;5090701;28;20028;-71
2023/01/26 00:49:43;;;;;;;35.47;17.38;;;;;;;;;;5091651;28;20054;-71
2023/01/26 00:52:11;;;;;;;33.70;17.33;;;;;;;;;;5092037;28;20081;-72
2023/01/26 00:54:37;;;;;;;34.33;17.50;;;;;;;;;;5091698;28;20020;-72
2023/01/26 00:57:03;;;;;;;30.95;16.48;;;;;;;;;;5092060;28;20048;-71
2023/01/26 00:59:31;;;;;;;34.03;18.48;;;;;;;;;;5091717;28;20465;-71
2023/01/26 01:01:58;;;;;;;34.78;17.75;;;;;;;;;;5091506;28;20072;-71
2023/01/26 01:04:24;;;;;;;34.83;17.23;;;;;;;;;;5091566;28;20036;-70
2023/01/26 01:06:51;;;;;;;37.03;18.10;;;;;;;;;;5091678;28;20016;-71
2023/01/26 01:09:17;;;;;;;33.70;17.85;;;;;;;;;;5091863;28;20028;-70
2023/01/26 01:11:44;;;;;;;33.92;17.33;;;;;;;;;;5092789;28;20028;-71
2023/01/26 01:14:12;;;;;;;33.88;18.20;;;;;;;;;;5095625;28;20016;-72
2023/01/26 01:16:38;;;;;;;34.13;16.95;;;;;;;;;;5095633;28;20038;-71
2023/01/26 01:19:04;;;;;;;35.92;19.10;;;;;;;;;;5095219;28;20026;-72
2023/01/26 01:21:31;;;;;;;44.15;19.95;;;;;;;;;;5093964;28;20046;-71
2023/01/26 01:23:58;;;;;;;37.15;18.25;;;;;;;;;;5095279;28;20053;-71
2023/01/26 01:26:24;;;;;;;35.58;18.73;;;;;;;;;;5095152;28;20043;-71
2023/01/26 01:28:53;;;;;;;41.05;18.42;;;;;;;;;;5095414;28;20050;-72
2023/01/26 01:31:19;;;;;;;43.55;20.08;;;;;;;;;;5095058;28;20028;-71
2023/01/26 01:33:46;;;;;;;41.40;18.88;;;;;;;;;;5094687;28;20030;-71
2023/01/26 01:36:13;;;;;;;40.72;19.58;;;;;;;;;;5095423;28;20030;-71
2023/01/26 01:38:40;;;;;;;46.03;20.17;;;;;;;;;;5095033;28;20026;-71
2023/01/26 01:41:06;;;;;;;39.65;18.50;;;;;;;;;;5095002;28;20027;-72
2023/01/26 01:43:33;;;;;;;39.70;18.75;;;;;;;;;;5094705;28;20035;-71
2023/01/26 01:46:17;;;;;;;41.92;19.67;;;;;;;;;;5095307;28;20084;-71
2023/01/26 01:48:43;;;;;;;34.78;18.00;;;;;;;;;;5094941;28;20026;-71
2023/01/26 01:51:19;;;;;;;40.58;19.08;;;;;;;;;;5094725;28;20024;-71
2023/01/26 01:53:47;;;;;;;36.17;17.83;;;;;;;;;;5094601;28;20028;-72
2023/01/26 01:56:20;;;;;;;33.53;16.95;;;;;;;;;;5093104;28;20542;-72
2023/01/26 01:58:48;;;;;;;35.47;17.02;;;;;;;;;;5094921;28;20024;-71
2023/01/26 02:01:14;;;;;;;33.35;17.45;;;;;;;;;;5094462;28;20032;-71
2023/01/26 02:03:42;;;;;;;35.20;17.67;;;;;;;;;;5094126;28;20036;-72
2023/01/26 02:06:35;;;;;;;34.70;17.45;;;;;;;;;;5094434;28;20480;-71
2023/01/26 02:09:01;;;;;;;36.97;17.08;;;;;;;;;;5090735;28;20042;-71
2023/01/26 02:11:31;;;;;;;35.50;17.27;;;;;;;;;;5094262;28;20480;-71
2023/01/26 02:13:58;;;;;;;33.95;17.05;;;;;;;;;;5093036;28;20031;-71
2023/01/26 02:16:24;;;;;;;32.00;16.02;;;;;;;;;;5094297;28;20020;-71
2023/01/26 02:18:51;;;;;;;30.83;16.52;;;;;;;;;;5093879;28;20032;-71
2023/01/26 02:21:18;;;;;;;31.30;16.08;;;;;;;;;;5094077;28;20507;-71
2023/01/26 02:23:57;;;;;;;34.17;17.63;;;;;;;;;;5093570;28;20491;-71
2023/01/26 02:26:25;;;;;;;32.78;17.02;;;;;;;;;;5100762;28;20022;-71
2023/01/26 02:28:52;;;;;;;32.80;16.65;;;;;;;;;;5114388;28;20020;-71
2023/01/26 02:31:19;;;;;;;29.50;15.07;;;;;;;;;;5114032;28;20032;-71
2023/01/26 02:33:45;;;;;;;28.42;14.93;;;;;;;;;;5114210;28;20395;-71
2023/01/26 02:36:23;;;;;;;26.27;14.57;;;;;;;;;;5114178;28;20041;-71
2023/01/26 02:38:58;;;;;;;27.52;14.65;;;;;;;;;;5114447;28;20023;-71
2023/01/26 02:44:11;;;;;;;21.60;12.52;;;;;;;;;;5112761;28;20030;-71
2023/01/26 02:46:37;;;;;;;29.65;14.65;;;;;;;;;;5113735;28;20026;-72
2023/01/26 02:51:49;;;;;;;27.90;14.02;;;;;;;;;;5113818;28;20028;-71
2023/01/26 02:57:00;;;;;;;24.77;13.23;;;;;;;;;;5073036;28;20047;-71
2023/01/26 02:59:27;;;;;;;25.63;13.60;;;;;;;;;;5073133;28;20028;-71
2023/01/26 03:01:55;;;;;;;24.67;13.05;;;;;;;;;;5072684;28;20025;-71
2023/01/26 03:04:21;;;;;;;27.08;13.35;;;;;;;;;;5073104;28;20493;-72
2023/01/26 03:06:48;;;;;;;24.85;12.73;;;;;;;;;;5073245;28;20035;-71
2023/01/26 03:09:14;;;;;;;25.15;13.45;;;;;;;;;;5079679;28;20016;-72
2023/01/26 03:11:43;;;;;;;24.42;12.68;;;;;;;;;;5093151;28;20035;-72
2023/01/26 03:14:13;;;;;;;24.90;13.23;;;;;;;;;;5093398;28;20020;-71
2023/01/26 03:16:40;;;;;;;26.42;13.20;;;;;;;;;;5092866;28;20044;-71
2023/01/26 03:29:50;;;;;;;34.92;15.98;;;;;;;;;;5092449;28;20514;-71
2023/01/26 03:32:16;;;;;;;33.63;15.65;;;;;;;;;;5092993;28;20028;-72
2023/01/26 03:34:43;;;;;;;26.42;13.68;;;;;;;;;;5092633;28;20468;-72
2023/01/26 03:37:10;;;;;;;21.85;12.73;;;;;;;;;;5091142;28;20031;-71
2023/01/26 03:56:22;;;;;;;24.92;13.32;;;;;;;;;;5092332;28;20048;-71
2023/01/26 03:58:49;;;;;;;31.10;15.00;;;;;;;;;;5092391;28;20024;-71
2023/01/26 04:01:19;;;;;;;25.05;14.00;;;;;;;;;;5092333;28;20062;-71
2023/01/26 04:09:19;;;;;;;26.48;13.90;;;;;;;;;;5092181;28;20016;-71
2023/01/26 04:11:46;;;;;;;25.05;13.40;;;;;;;;;;5092578;28;20058;-71
2023/01/26 04:22:29;;;;;;;25.45;13.35;;;;;;;;;;5090722;28;20032;-71
2023/01/26 04:24:58;;;;;;;25.83;13.85;;;;;;;;;;5092072;28;20020;-71
2023/01/26 04:27:24;;;;;;;28.58;13.20;;;;;;;;;;5091854;28;20020;-72
2023/01/26 04:29:50;;;;;;;21.00;12.13;;;;;;;;;;5091978;28;20493;-71
2023/01/26 04:32:17;;;;;;;24.67;13.73;;;;;;;;;;5092072;28;20020;-71
2023/01/26 04:34:43;;;;;;;22.95;12.98;;;;;;;;;;5092145;28;20415;-71
2023/01/26 04:37:09;;;;;;;21.27;12.07;;;;;;;;;;5092237;28;20030;-71
2023/01/26 04:39:36;;;;;;;20.58;11.85;;;;;;;;;;5092042;28;20019;-71
2023/01/26 04:42:02;;;;;;;21.58;11.45;;;;;;;;;;5091698;28;20031;-71
2023/01/26 04:44:28;;;;;;;22.23;12.25;;;;;;;;;;5092025;28;20031;-72
2023/01/26 04:46:55;;;;;;;20.10;12.20;;;;;;;;;;5093039;28;20020;-72
2023/01/26 04:49:21;;;;;;;21.50;12.27;;;;;;;;;;5096508;28;20032;-71
2023/01/26 04:51:47;;;;;;;22.63;12.25;;;;;;;;;;5095733;28;20073;-71
2023/01/26 04:54:14;;;;;;;21.92;12.07;;;;;;;;;;5095804;28;20016;-71
2023/01/26 04:56:40;;;;;;;20.20;12.02;;;;;;;;;;5095370;28;20054;-71
2023/01/26 04:59:07;;;;;;;19.45;11.15;;;;;;;;;;5095862;28;20031;-71
2023/01/26 05:01:33;;;;;;;20.67;11.77;;;;;;;;;;5095596;28;20030;-71
2023/01/26 05:04:00;;;;;;;20.35;11.20;;;;;;;;;;5095797;28;20530;-71
2023/01/26 05:06:26;;;;;;;21.65;11.65;;;;;;;;;;5095835;28;20036;-71
2023/01/26 05:08:53;;;;;;;17.63;10.50;;;;;;;;;;5095748;28;20012;-71
2023/01/26 05:11:19;;;;;;;17.60;10.27;;;;;;;;;;5095073;28;20028;-71
2023/01/26 05:13:46;;;;;;;19.17;10.45;;;;;;;;;;5095691;28;20039;-71
2023/01/26 05:16:13;;;;;;;18.13;10.35;;;;;;;;;;5095411;28;20020;-72
2023/01/26 05:18:42;;;;;;;19.08;10.57;;;;;;;;;;5095561;28;20028;-72
2023/01/26 05:21:10;;;;;;;19.80;10.55;;;;;;;;;;5095240;28;20024;-71
2023/01/26 05:23:36;;;;;;;15.68;9.35;;;;;;;;;;5095252;28;20020;-72
2023/01/26 05:26:03;;;;;;;15.88;8.93;;;;;;;;;;5095224;28;20034;-70
2023/01/26 05:28:29;;;;;;;14.60;9.40;;;;;;;;;;5095500;28;20038;-71
2023/01/26 05:30:55;;;;;;;17.92;9.65;;;;;;;;;;5095042;28;20395;-71
2023/01/26 05:33:22;;;;;;;16.73;9.38;;;;;;;;;;5095142;28;20026;-71
2023/01/26 05:35:48;;;;;;;20.38;11.05;;;;;;;;;;5095070;28;20024;-71
2023/01/26 05:38:15;;;;;;;15.60;9.13;;;;;;;;;;5094964;28;20017;-71
2023/01/26 05:40:41;;;;;;;14.75;8.95;;;;;;;;;;5094757;28;20024;-71
2023/01/26 05:43:08;;;;;;;15.02;8.75;;;;;;;;;;5094815;28;20016;-71
2023/01/26 05:45:34;;;;;;;16.02;9.38;;;;;;;;;;5095091;28;20030;-71
2023/01/26 05:48:01;;;;;;;16.17;9.05;;;;;;;;;;5093884;28;20028;-72
2023/01/26 05:50:28;;;;;;;14.52;8.52;;;;;;;;;;5094570;28;20481;-72
2023/01/26 05:52:54;;;;;;;16.65;9.50;;;;;;;;;;5094860;28;20430;-71
2023/01/26 05:55:20;;;;;;;15.45;8.88;;;;;;;;;;5094316;28;20019;-71
2023/01/26 05:57:47;;;;;;;14.65;8.80;;;;;;;;;;5094239;28;20048;-71
2023/01/26 06:00:13;;;;;;;16.17;8.20;;;;;;;;;;5094068;28;20024;-71
2023/01/26 06:02:40;;;;;;;14.63;8.40;;;;;;;;;;5094392;28;20053;-71
2023/01/26 06:05:07;;;;;;;15.30;8.60;;;;;;;;;;5094616;28;20020;-71
2023/01/26 06:07:33;;;;;;;13.25;7.72;;;;;;;;;;5094728;28;20541;-71
2023/01/26 06:10:00;;;;;;;12.93;8.20;;;;;;;;;;5094288;28;20031;-71
2023/01/26 06:12:30;;;;;;;14.80;8.55;;;;;;;;;;5094239;28;20032;-71
2023/01/26 06:14:59;;;;;;;15.55;8.38;;;;;;;;;;5094399;28;20020;-71
2023/01/26 06:17:25;;;;;;;13.18;7.97;;;;;;;;;;5094601;28;20031;-71
2023/01/26 06:19:52;;;;;;;13.90;8.32;;;;;;;;;;5094193;28;20378;-71
2023/01/26 06:22:18;;;;;;;12.65;8.10;;;;;;;;;;5094185;28;20024;-72
2023/01/26 06:24:44;;;;;;;15.57;8.88;;;;;;;;;;5094197;28;20038;-71
2023/01/26 06:27:15;;;;;;;12.75;7.90;;;;;;;;;;5094015;28;20142;-71
2023/01/26 06:29:41;;;;;;;14.30;7.97;;;;;;;;;;5093942;28;20024;-71
2023/01/26 06:32:09;;;;;;;13.38;7.60;;;;;;;;;;5094243;28;20028;-71
2023/01/26 06:34:36;;;;;;;14.50;8.90;;;;;;;;;;5094021;28;20022;-71
2023/01/26 06:37:02;;;;;;;14.20;8.00;;;;;;;;;;5094143;28;20024;-71
2023/01/26 06:39:28;;;;;;;15.05;8.68;;;;;;;;;;5093906;28;20032;-71
2023/01/26 06:41:55;;;;;;;15.82;8.88;;;;;;;;;;5093957;28;20411;-71
2023/01/26 06:44:21;;;;;;;15.60;9.45;;;;;;;;;;5094166;28;20020;-71
2023/01/26 06:46:47;;;;;;;14.65;8.55;;;;;;;;;;5092738;28;20036;-71
2023/01/26 06:49:15;;;;;;;17.48;9.63;;;;;;;;;;5093736;28;20015;-71
2023/01/26 06:51:43;;;;;;;17.90;10.02;;;;;;;;;;5093347;28;20036;-71
2023/01/26 06:54:11;;;;;;;16.27;9.18;;;;;;;;;;5093409;28;20016;-72
2023/01/26 06:56:37;;;;;;;18.45;9.23;;;;;;;;;;5092771;28;20051;-71
2023/01/26 06:59:04;;;;;;;18.17;10.50;;;;;;;;;;5091369;28;20396;-71
2023/01/26 07:01:33;;;;;;;15.98;9.88;;;;;;;;;;5092976;28;20020;-71
2023/01/26 07:03:59;;;;;;;15.38;9.40;;;;;;;;;;5092929;28;20032;-71
2023/01/26 07:06:25;;;;;;;17.77;10.63;;;;;;;;;;5092652;28;20084;-71
2023/01/26 07:08:52;;;;;;;17.25;10.07;;;;;;;;;;5091185;28;20020;-71
2023/01/26 07:11:19;;;;;;;16.27;9.73;;;;;;;;;;5092949;28;20085;-71
2023/01/26 07:13:46;;;;;;;18.67;10.50;;;;;;;;;;5108362;28;20473;-71
2023/01/26 07:16:13;;;;;;;19.95;11.10;;;;;;;;;;5089583;28;20043;-71
2023/01/26 07:18:39;;;;;;;18.92;11.15;;;;;;;;;;5092680;28;20032;-72
2023/01/26 07:21:14;;;;;;;20.50;10.43;;;;;;;;;;5091751;28;20034;-71
2023/01/26 07:23:40;;;;;;;20.27;10.52;;;;;;;;;;5092262;28;20028;-71
2023/01/26 07:26:06;;;;;;;18.20;10.90;;;;;;;;;;5092735;28;20028;-71
2023/01/26 07:28:33;;;;;;;18.27;10.45;;;;;;;;;;5092111;28;20384;-71
2023/01/26 07:31:00;;;;;;;18.45;10.77;;;;;;;;;;5092086;28;20092;-72
2023/01/26 07:33:28;;;;;;;20.95;10.57;;;;;;;;;;5089473;28;20431;-72
2023/01/26 07:35:55;;;;;;;18.85;11.82;;;;;;;;;;5092490;28;20031;-70
2023/01/26 07:38:21;;;;;;;22.30;12.63;;;;;;;;;;5093113;28;20039;-71
2023/01/26 07:40:48;;;;;;;22.45;11.10;;;;;;;;;;5092287;28;20028;-72
2023/01/26 07:43:15;;;;;;;19.25;11.00;;;;;;;;;;5091891;28;20036;-72
2023/01/26 07:45:50;;;;;;;20.23;10.23;;;;;;;;;;5092112;28;20019;-71
2023/01/26 07:48:17;;;;;;;19.40;11.05;;;;;;;;;;5092376;28;20028;-71
2023/01/26 07:50:44;;;;;;;19.33;10.52;;;;;;;;;;5091274;28;20032;-71
2023/01/26 07:53:13;;;;;;;18.45;10.73;;;;;;;;;;5090090;28;20493;-72
2023/01/26 07:55:42;;;;;;;20.80;11.18;;;;;;;;;;5091602;28;20036;-72
2023/01/26 07:58:09;;;;;;;20.92;11.05;;;;;;;;;;5092252;28;20077;-71
2023/01/26 08:00:35;;;;;;;21.38;12.07;;;;;;;;;;5091776;28;20511;-71
2023/01/26 08:03:01;;;;;;;20.70;11.30;;;;;;;;;;5091841;28;20024;-72
2023/01/26 08:05:28;;;;;;;17.75;10.68;;;;;;;;;;5090885;28;20505;-71
2023/01/26 08:08:00;;;;;;;20.75;11.70;;;;;;;;;;5090517;28;20016;-72
2023/01/26 08:10:30;;;;;;;19.33;11.38;;;;;;;;;;5088539;28;20028;-71
2023/01/26 08:12:59;;;;;;;20.55;11.75;;;;;;;;;;5086386;28;20058;-72
2023/01/26 08:15:25;;;;;;;18.60;11.07;;;;;;;;;;5090950;28;20017;-71
2023/01/26 08:17:53;;;;;;;21.70;11.07;;;;;;;;;;5091190;28;20020;-70
2023/01/26 08:20:19;;;;;;;19.65;11.07;;;;;;;;;;5090297;28;20391;-71
2023/01/26 08:22:45;;;;;;;19.73;11.15;;;;;;;;;;5090515;28;20046;-71
2023/01/26 08:25:12;;;;;;;20.20;11.75;;;;;;;;;;5090802;28;20024;-72
2023/01/26 08:27:38;;;;;;;20.70;11.70;;;;;;;;;;5091395;28;20032;-72
2023/01/26 08:30:05;;;;;;;18.55;11.20;;;;;;;;;;5089835;28;20032;-72
2023/01/26 08:32:31;;;;;;;19.10;11.15;;;;;;;;;;5089196;28;20069;-71
2023/01/26 08:34:58;;;;;;;19.58;11.18;;;;;;;;;;5090081;28;20092;-71
2023/01/26 08:37:24;;;;;;;19.42;10.73;;;;;;;;;;5090478;28;20392;-71
2023/01/26 08:39:50;;;;;;;20.52;11.63;;;;;;;;;;5090713;28;20032;-71
2023/01/26 08:42:17;;;;;;;18.65;10.82;;;;;;;;;;5090591;28;20113;-71
2023/01/26 08:44:43;;;;;;;20.98;11.82;;;;;;;;;;5090598;28;20027;-71
2023/01/26 08:47:09;;;;;;;18.88;10.77;;;;;;;;;;5090318;28;20403;-71
2023/01/26 08:49:36;;;;;;;18.38;11.07;;;;;;;;;;5088414;28;20022;-71
2023/01/26 08:52:02;;;;;;;20.30;11.02;;;;;;;;;;5089697;28;20503;-71
2023/01/26 08:54:29;;;;;;;18.80;10.40;;;;;;;;;;5089213;28;20020;-70
2023/01/26 08:56:55;;;;;;;16.98;9.77;;;;;;;;;;5090514;28;20405;-71
2023/01/26 08:59:21;;;;;;;16.30;9.70;;;;;;;;;;5091200;28;20027;-71
2023/01/26 09:01:48;;;;;;;16.45;9.85;;;;;;;;;;5088842;28;20020;-71
2023/01/26 09:04:14;;;;;;;16.92;9.85;;;;;;;;;;5089922;28;20404;-71
2023/01/26 09:06:41;;;;;;;17.63;9.90;;;;;;;;;;5090858;28;20016;-71
2023/01/26 09:09:11;;;;;;;16.08;9.45;;;;;;;;;;5090466;28;20077;-71
2023/01/26 09:11:38;;;;;;;13.30;7.78;;;;;;;;;;5090590;28;20036;-71
2023/01/26 09:14:05;;;;;;;14.10;7.93;;;;;;;;;;5090453;28;20032;-71
2023/01/26 09:16:31;;;;;;;13.73;7.32;;;;;;;;;;5090903;28;20030;-70
2023/01/26 09:18:58;;;;;;;14.48;8.02;;;;;;;;;;5090380;28;20388;-70
2023/01/26 09:21:24;;;;;;;15.15;8.15;;;;;;;;;;5087944;28;20021;-70
2023/01/26 09:23:50;;;;;;;14.13;8.60;;;;;;;;;;5090309;28;20032;-69
2023/01/26 09:26:17;;;;;;;14.05;7.57;;;;;;;;;;5088552;28;20391;-71
2023/01/26 09:28:43;;;;;;;14.98;8.05;;;;;;;;;;5089580;28;20025;-71
2023/01/26 09:31:10;;;;;;;15.05;7.85;;;;;;;;;;5089045;28;20042;-71
2023/01/26 09:33:37;;;;;;;13.57;7.55;;;;;;;;;;5069932;28;20035;-71
2023/01/26 09:36:05;;;;;;;11.45;7.38;;;;;;;;;;5087764;28;20448;-71
2023/01/26 09:38:31;;;;;;;14.07;7.88;;;;;;;;;;5093627;28;20034;-71
2023/01/26 09:41:06;;;;;;;11.68;7.10;;;;;;;;;;5092427;28;20024;-71
2023/01/26 09:43:40;;;;;;;12.40;7.03;;;;;;;;;;5092777;28;20034;-71
2023/01/26 09:46:16;;;;;;;15.15;8.10;;;;;;;;;;5105239;28;20028;-71
2023/01/26 09:48:50;;;;;;;13.15;8.20;;;;;;;;;;5113666;28;20024;-72
2023/01/26 09:51:19;;;;;;;13.10;7.00;;;;;;;;;;5113394;28;20031;-71
2023/01/26 09:53:49;;;;;;;15.18;6.93;;;;;;;;;;5113658;28;20036;-72
2023/01/26 09:56:20;;;;;;;13.45;7.47;;;;;;;;;;5087703;28;20097;-71
2023/01/26 09:58:49;;;;;;;12.10;6.63;;;;;;;;;;5093310;28;20032;-71
2023/01/26 10:01:22;;;;;;;9.45;6.43;;;;;;;;;;5093026;28;20026;-71
2023/01/26 10:04:00;;;;;;;11.45;6.32;;;;;;;;;;5092556;28;20030;-71
2023/01/26 10:06:28;;;;;;;10.30;6.35;;;;;;;;;;5092087;28;20038;-71
2023/01/26 10:08:58;;;;;;;20.95;10.50;;;;;;;;;;5091805;28;20030;-71
2023/01/26 10:11:27;;;;;;;12.52;6.75;;;;;;;;;;5092481;28;20036;-71
2023/01/26 10:14:01;;;;;;;12.20;6.93;;;;;;;;;;5092864;28;20073;-71
2023/01/26 10:16:28;;;;;;;11.75;7.53;;;;;;;;;;5092654;28;20028;-71
2023/01/26 10:19:14;;;;;;;14.52;7.55;;;;;;;;;;5094056;28;20028;-71
2023/01/26 10:21:44;;;;;;;12.48;6.80;;;;;;;;;;5091572;28;20505;-71
2023/01/26 10:24:11;;;;;;;9.30;6.28;;;;;;;;;;5091921;28;20009;-71
2023/01/26 10:26:38;;;;;;;10.63;6.43;;;;;;;;;;5092915;28;20024;-71
2023/01/26 10:29:04;;;;;;;9.25;5.85;;;;;;;;;;5093590;28;20027;-72
2023/01/26 10:31:32;;;;;;;9.27;5.78;;;;;;;;;;5090870;28;20038;-72
2023/01/26 10:34:00;;;;;;;9.82;6.32;;;;;;;;;;5092441;28;20050;-71
2023/01/26 10:36:30;;;;;;;10.00;5.93;;;;;;;;;;5094145;28;20038;-72
2023/01/26 10:39:07;;;;;;;11.60;6.10;;;;;;;;;;5113330;28;20012;-71
2023/01/26 10:41:33;;;;;;;10.07;6.07;;;;;;;;;;5112615;28;20040;-71
2023/01/26 10:43:59;;;;;;;7.97;5.25;;;;;;;;;;5095975;28;20515;-72
2023/01/26 10:46:27;;;;;;;8.70;5.43;;;;;;;;;;5091923;28;20121;-71
2023/01/26 10:48:55;;;;;;;8.77;5.32;;;;;;;;;;5092551;28;20020;-71
2023/01/26 10:51:24;;;;;;;8.70;5.47;;;;;;;;;;5092077;28;20044;-72
2023/01/26 10:53:50;;;;;;;7.88;5.63;;;;;;;;;;5092246;28;20023;-71
2023/01/26 10:56:16;;;;;;;9.90;6.18;;;;;;;;;;5092035;28;20527;-71
2023/01/26 10:58:54;;;;;;;9.43;5.43;;;;;;;;;;5092533;28;20518;-71
2023/01/26 11:01:22;;;;;;;12.32;6.80;;;;;;;;;;5092281;28;20036;-71
2023/01/26 11:04:14;;;;;;;13.00;7.07;;;;;;;;;;5091848;28;20024;-71
2023/01/26 11:06:40;;;;;;;13.32;6.63;;;;;;;;;;5089271;28;20040;-71
2023/01/26 11:09:10;;;;;;;10.15;6.45;;;;;;;;;;5091362;28;20020;-72
2023/01/26 11:11:36;;;;;;;12.27;5.05;;;;;;;;;;5091511;28;20038;-71
2023/01/26 11:14:14;;;;;;;8.00;4.80;;;;;;;;;;5091770;28;20020;-71
2023/01/26 11:16:50;;;;;;;7.68;5.32;;;;;;;;;;5091974;28;20545;-71
2023/01/26 11:19:19;;;;;;;9.85;5.32;;;;;;;;;;5092142;28;20030;-71
2023/01/26 11:21:52;;;;;;;8.40;5.53;;;;;;;;;;5091599;28;20038;-71
2023/01/26 11:24:25;;;;;;;7.63;5.18;;;;;;;;;;5092102;28;20028;-70
2023/01/26 11:27:06;;;;;;;8.63;5.03;;;;;;;;;;5092074;28;20030;-71
2023/01/26 11:29:42;;;;;;;10.02;5.32;;;;;;;;;;5091045;28;20024;-71
2023/01/26 11:32:16;;;;;;;7.75;4.80;;;;;;;;;;5091390;28;20032;-70
2023/01/26 11:34:42;;;;;;;7.63;4.60;;;;;;;;;;5092850;28;20027;-70
2023/01/26 11:37:09;;;;;;;6.93;4.38;;;;;;;;;;5089675;28;20027;-72
2023/01/26 11:39:46;;;;;;;9.75;5.53;;;;;;;;;;5087734;28;20032;-71
2023/01/26 11:42:31;;;;;;;8.80;4.93;;;;;;;;;;5091126;28;20020;-71
2023/01/26 11:45:17;;;;;;;8.07;5.53;;;;;;;;;;5090842;28;20477;-71
2023/01/26 11:47:43;;;;;;;10.50;5.40;;;;;;;;;;5091375;28;20024;-71
2023/01/26 11:50:19;;;;;;;7.35;4.97;;;;;;;;;;5073186;28;20457;-71
2023/01/26 11:52:51;;;;;;;8.25;5.57;;;;;;;;;;5091337;28;20050;-71
2023/01/26 11:55:29;;;;;;;10.20;5.85;;;;;;;;;;5091238;28;20022;-71
2023/01/26 11:58:01;;;;;;;9.60;5.72;;;;;;;;;;5069499;28;20046;-71
2023/01/26 12:00:42;;;;;;;7.00;4.82;;;;;;;;;;5071088;28;20039;-71
2023/01/26 12:03:08;;;;;;;;;;;;;;;;;;5071495;28;20126;-71
2023/01/26 12:05:42;;;;;;;12.75;6.78;;;;;;;;;;5071222;28;20284;-71
2023/01/26 12:08:17;;;;;;;9.43;5.65;;;;;;;;;;5070915;28;20098;-72
2023/01/26 12:11:22;;;;;;;12.82;5.63;;;;;;;;;;5089611;28;20044;-71
2023/01/26 12:13:56;;;;;;;10.90;5.70;;;;;;;;;;5027608;28;20037;-71
2023/01/26 12:16:37;;;;;;;12.65;6.20;;;;;;;;;;5027700;28;20029;-71
2023/01/26 12:19:09;;;;;;;7.70;4.93;;;;;;;;;;5012350;28;20075;-72
2023/01/26 12:21:36;;;;;;;8.63;5.57;;;;;;;;;;5028636;28;20128;-71
2023/01/26 12:24:04;;;;;;;9.88;5.20;;;;;;;;;;5028206;28;20580;-71
2023/01/26 12:26:36;;;;;;;10.30;4.78;;;;;;;;;;5011664;28;20607;-71
2023/01/26 12:29:08;;;;;;;7.82;5.07;;;;;;;;;;5028200;28;20035;-70
2023/01/26 12:31:57;;;;;;;9.60;5.40;;;;;;;;;;5028305;28;20057;-71
2023/01/26 12:34:28;;;;;;;8.48;5.38;;;;;;;;;;5028546;28;20136;-71
2023/01/26 12:37:04;;;;;;;8.18;5.28;;;;;;;;;;5021298;28;20064;-72
2023/01/26 12:39:34;;;;;;;10.73;5.70;;;;;;;;;;5015038;28;20044;-70
2023/01/26 12:42:19;;;;;;;8.90;5.13;;;;;;;;;;5009373;28;20033;-71
2023/01/26 12:44:50;;;;;;;13.98;6.05;;;;;;;;;;5009436;28;20042;-71
2023/01/26 12:47:31;;;;;;;7.93;4.38;;;;;;;;;;5009000;28;20025;-71
2023/01/26 12:50:01;;;;;;;9.45;4.55;;;;;;;;;;5032293;28;20573;-72
2023/01/26 12:52:31;;;;;;;7.22;4.60;;;;;;;;;;5084209;28;20044;-71
2023/01/26 12:55:03;;;;;;;8.45;4.68;;;;;;;;;;5089280;28;20024;-71
2023/01/26 12:57:34;;;;;;;5.78;4.28;;;;;;;;;;5089019;28;20565;-71
2023/01/26 13:00:08;;;;;;;6.30;4.43;;;;;;;;;;5090123;28;20027;-72
2023/01/26 13:02:35;;;;;;;5.47;3.92;;;;;;;;;;5087283;28;20048;-70
2023/01/26 13:05:02;;;;;;;13.95;5.20;;;;;;;;;;5089943;28;20028;-70
2023/01/26 13:07:31;;;;;;;5.35;3.75;;;;;;;;;;5087805;28;20085;-70
2023/01/26 13:10:09;;;;;;;6.22;3.60;;;;;;;;;;5093200;28;20028;-71
2023/01/26 13:12:46;;;;;;;5.15;3.28;;;;;;;;;;5093652;28;20407;-71
2023/01/26 13:15:16;;;;;;;7.22;3.63;;;;;;;;;;5094390;28;20020;-71
2023/01/26 13:18:02;;;;;;;6.15;3.92;;;;;;;;;;5093803;28;20024;-71
2023/01/26 13:20:42;;;;;;;5.75;3.90;;;;;;;;;;5092254;28;20038;-71
2023/01/26 13:23:27;;;;;;;4.82;3.53;;;;;;;;;;5092725;28;20034;-71
2023/01/26 13:26:13;;;;;;;5.38;3.42;;;;;;;;;;5093038;28;20498;-70
2023/01/26 13:28:40;;;;;;;5.53;3.47;;;;;;;;;;5092376;28;20032;-71
2023/01/26 13:31:07;;;;;;;7.18;4.05;;;;;;;;;;5093270;28;20037;-70
2023/01/26 13:33:33;;;;;;;4.22;2.97;;;;;;;;;;5092345;28;20026;-70
2023/01/26 13:36:02;;;;;;;5.38;3.70;;;;;;;;;;5092100;28;20024;-71
2023/01/26 13:38:47;;;;;;;12.88;7.03;;;;;;;;;;5093030;28;20026;-71
2023/01/26 13:41:22;;;;;;;17.75;9.77;;;;;;;;;;5093457;28;20039;-71
2023/01/26 13:44:07;;;;;;;9.65;5.65;;;;;;;;;;5093116;28;20024;-71
2023/01/26 13:46:44;;;;;;;13.43;7.55;;;;;;;;;;5093623;28;20395;-71
2023/01/26 13:49:49;;;;;;;8.38;4.55;;;;;;;;;;5093005;28;20028;-71
2023/01/26 13:52:21;;;;;;;9.13;6.25;;;;;;;;;;5029566;28;20040;-71
2023/01/26 13:54:47;;;;;;;4.38;3.45;;;;;;;;;;5029116;28;20048;-71
2023/01/26 13:57:27;;;;;;;5.65;4.07;;;;;;;;;;5030252;28;20175;-72
2023/01/26 13:59:55;;;;;;;5.18;3.92;;;;;;;;;;5030664;28;20045;-71
2023/01/26 14:02:26;;;;;;;4.30;2.97;;;;;;;;;;5029767;28;20033;-71
2023/01/26 14:04:56;;;;;;;5.38;3.83;;;;;;;;;;5013783;28;20076;-72
2023/01/26 14:07:27;;;;;;;7.15;3.30;;;;;;;;;;5030304;28;20517;-71
2023/01/26 14:09:54;;;;;;;4.07;3.08;;;;;;;;;;5030563;28;20044;-71
2023/01/26 14:12:27;;;;;;;4.28;3.47;;;;;;;;;;5030271;28;20183;-71
2023/01/26 14:14:59;;;;;;;5.47;2.95;;;;;;;;;;5029366;28;20028;-71
2023/01/26 14:17:33;;;;;;;5.03;3.05;;;;;;;;;;5030376;28;20035;-72
2023/01/26 14:20:02;;;;;;;4.10;2.65;;;;;;;;;;5029473;28;20030;-71
2023/01/26 14:22:29;;;;;;;5.25;2.78;;;;;;;;;;5029848;28;20087;-71
2023/01/26 14:24:55;;;;;;;3.70;2.50;;;;;;;;;;5030068;28;20342;-71
2023/01/26 14:27:21;;;;;;;4.18;2.78;;;;;;;;;;5103330;28;20024;-71
2023/01/26 14:29:48;;;;;;;6.07;2.78;;;;;;;;;;5091237;28;20027;-72
2023/01/26 14:32:16;;;;;;;4.25;3.30;;;;;;;;;;5089860;28;20084;-71
2023/01/26 14:34:59;;;;;;;6.45;2.78;;;;;;;;;;5091407;28;20031;-72
2023/01/26 14:37:26;;;;;;;3.97;2.63;;;;;;;;;;5090334;28;20030;-72
2023/01/26 14:40:11;;;;;;;4.47;2.95;;;;;;;;;;5091827;28;20034;-72
2023/01/26 14:42:38;;;;;;;4.40;3.28;;;;;;;;;;5089923;28;20030;-71
2023/01/26 14:45:05;;;;;;;3.88;2.60;;;;;;;;;;5092374;28;20020;-68
2023/01/26 14:47:33;;;;;;;3.38;2.28;;;;;;;;;;5092069;28;20496;-71
2023/01/26 14:49:59;;;;;;;3.63;2.60;;;;;;;;;;5092218;28;20472;-71
2023/01/26 14:52:27;;;;;;;13.05;3.10;;;;;;;;;;5092639;28;20032;-71
2023/01/26 14:54:55;;;;;;;3.50;2.70;;;;;;;;;;5091849;28;20030;-71
2023/01/26 14:57:23;;;;;;;4.43;2.97;;;;;;;;;;5091724;28;20060;-72
2023/01/26 14:59:51;;;;;;;4.18;2.80;;;;;;;;;;5091383;28;20058;-71
2023/01/26 15:02:24;;;;;;;4.43;2.97;;;;;;;;;;5090540;28;20032;-71
2023/01/26 15:04:50;;;;;;;3.97;2.55;;;;;;;;;;5091744;28;20399;-71
2023/01/26 15:07:32;;;;;;;5.07;2.75;;;;;;;;;;5092198;28;20035;-71
2023/01/26 15:09:58;;;;;;;4.40;3.17;;;;;;;;;;5091759;28;20024;-71
2023/01/26 15:12:24;;;;;;;3.15;2.55;;;;;;;;;;5089995;28;20042;-71
2023/01/26 15:14:55;;;;;;;2.67;2.20;;;;;;;;;;5097569;28;20046;-71
2023/01/26 15:17:30;;;;;;;4.18;2.55;;;;;;;;;;5092541;28;20037;-71
2023/01/26 15:19:57;;;;;;;3.42;2.50;;;;;;;;;;5089796;28;20035;-71
2023/01/26 15:22:25;;;;;;;4.15;2.50;;;;;;;;;;5091396;28;20036;-71
2023/01/26 15:25:02;;;;;;;3.22;2.55;;;;;;;;;;5089372;28;20522;-71
2023/01/26 15:27:35;;;;;;;4.78;2.78;;;;;;;;;;5091684;28;20043;-71
2023/01/26 15:30:03;;;;;;;3.90;2.67;;;;;;;;;;5090855;28;20073;-71